createdAt,value
2022-10-02T00:00:14.614Z,99606.91
2022-10-02T00:03:30.246Z,99598.23
2022-10-02T00:06:40.394Z,99596.70
2022-10-02T00:10:06.742Z,99593.95
2022-10-02T00:13:16.898Z,99597.48
2022-10-02T00:16:41.963Z,99598.87
2022-10-02T00:19:48.212Z,99606.21
2022-10-02T00:22:59.757Z,99608.67
2022-10-02T00:26:23.048Z,99601.98
2022-10-02T00:29:41.573Z,99610.20
2022-10-02T00:33:14.479Z,99599.77
2022-10-02T00:36:50.301Z,99601.23
2022-10-02T00:40:46.098Z,99596.77
2022-10-02T00:44:01.608Z,99595.86
2022-10-02T00:47:28.038Z,99598.38
2022-10-02T00:51:03.841Z,99603.45
2022-10-02T00:54:44.880Z,99600.84
2022-10-02T00:58:29.782Z,99594.17
2022-10-02T01:01:39.789Z,99592.75
2022-10-02T01:04:50.382Z,99589.98
2022-10-02T01:07:56.629Z,99585.64
2022-10-02T01:11:02.749Z,99575.73
2022-10-02T01:14:08.946Z,99572.38
2022-10-02T01:17:14.709Z,99577.19
2022-10-02T01:20:23.549Z,99570.89
2022-10-02T01:23:42.986Z,99566.44
2022-10-02T01:26:48.250Z,99567.57
2022-10-02T01:29:54.279Z,99567.57
2022-10-02T01:33:08.157Z,99553.05
2022-10-02T01:36:13.829Z,99546.58
2022-10-02T01:39:20.360Z,99541.09
2022-10-02T01:42:26.178Z,99539.80
2022-10-02T01:45:31.958Z,99532.67
2022-10-02T01:48:55.073Z,99527.53
2022-10-02T01:52:27.556Z,99524.19
2022-10-02T01:56:03.215Z,99530.50
2022-10-02T01:59:29.291Z,99529.61
2022-10-02T02:02:53.211Z,99523.00
2022-10-02T02:06:19.590Z,99519.19
2022-10-02T02:09:51.517Z,99502.78
2022-10-02T02:13:18.087Z,99502.33
2022-10-02T02:16:55.935Z,99487.60
2022-10-02T02:20:09.512Z,99474.38
2022-10-02T02:23:23.114Z,99463.67
2022-10-02T02:26:29.181Z,99449.23
2022-10-02T02:29:33.944Z,99448.66
2022-10-02T02:32:41.469Z,99438.53
2022-10-02T02:35:51.731Z,99426.89
2022-10-02T02:39:02.665Z,99423.05
2022-10-02T02:42:05.874Z,99419.41
2022-10-02T02:45:31.067Z,99412.22
2022-10-02T02:48:43.589Z,99411.75
2022-10-02T02:51:53.307Z,99408.19
2022-10-02T02:55:22.047Z,99408.91
2022-10-02T02:58:36.534Z,99414.02
2022-10-02T03:01:42.675Z,99410.20
2022-10-02T03:04:49.208Z,99401.59
2022-10-02T03:07:55.047Z,99399.04
2022-10-02T03:11:36.078Z,99396.45
2022-10-02T03:14:55.466Z,99402.14
2022-10-02T03:18:27.444Z,99393.94
2022-10-02T03:21:46.230Z,99385.12
2022-10-02T03:25:00.288Z,99382.56
2022-10-02T03:28:54.414Z,99377.00
2022-10-02T03:31:43.244Z,99369.48
2022-10-02T03:34:48.735Z,99364.96
2022-10-02T03:38:04.322Z,99363.16
2022-10-02T03:41:10.161Z,99354.83
2022-10-02T03:44:16.326Z,99357.03
2022-10-02T03:47:21.424Z,99353.95
2022-10-02T03:50:32.819Z,99342.70
2022-10-02T03:53:41.557Z,99342.48
2022-10-02T03:56:55.354Z,99339.78
2022-10-02T04:00:12.103Z,99331.58
2022-10-02T04:03:29.965Z,99330.94
2022-10-02T04:07:13.629Z,99333.86
2022-10-02T04:10:39.051Z,99331.86
2022-10-02T04:13:55.378Z,99340.89
2022-10-02T04:17:34.757Z,99348.16
2022-10-02T04:20:44.923Z,99349.02
2022-10-02T04:24:04.570Z,99332.76
2022-10-02T04:27:31.279Z,99332.27
2022-10-02T04:30:36.737Z,99334.05
2022-10-02T04:33:42.327Z,99327.61
2022-10-02T04:37:29.128Z,99327.46
2022-10-02T04:41:00.448Z,99325.58
2022-10-02T04:44:39.059Z,99320.93
2022-10-02T04:48:06.902Z,99325.88
2022-10-02T04:51:35.893Z,99318.00
2022-10-02T04:55:25.338Z,99324.77
2022-10-02T04:58:19.887Z,99325.20
2022-10-02T05:01:53.499Z,99322.59
2022-10-02T05:05:07.035Z,99325.46
2022-10-02T05:08:41.325Z,99315.61
2022-10-02T05:12:26.691Z,99309.09
2022-10-02T05:15:40.532Z,99298.95
2022-10-02T05:19:10.996Z,99277.83
2022-10-02T05:22:43.187Z,99285.09
2022-10-02T05:26:23.704Z,99288.61
2022-10-02T05:29:42.866Z,99282.38
2022-10-02T05:32:59.336Z,99280.52
2022-10-02T05:36:39.968Z,99271.42
2022-10-02T05:39:49.931Z,99257.67
2022-10-02T05:43:00.957Z,99258.31
2022-10-02T05:46:10.375Z,99246.73
2022-10-02T05:49:30.566Z,99236.64
2022-10-02T05:53:02.800Z,99233.27
2022-10-02T05:56:18.620Z,99226.17
2022-10-02T05:59:38.433Z,99219.61
2022-10-02T06:03:00.677Z,99212.41
2022-10-02T06:06:19.216Z,99192.34
2022-10-02T06:09:31.713Z,99196.58
2022-10-02T06:12:59.616Z,99192.58
2022-10-02T06:16:27.266Z,99185.52
2022-10-02T06:19:43.838Z,99189.52
2022-10-02T06:22:52.256Z,99173.23
2022-10-02T06:26:18.458Z,99168.66
2022-10-02T06:29:39.999Z,99167.64
2022-10-02T06:32:55.378Z,99148.82
2022-10-02T06:36:18.669Z,99149.31
2022-10-02T06:39:38.215Z,99156.05
2022-10-02T06:43:12.319Z,99142.05
2022-10-02T06:46:41.108Z,99137.42
2022-10-02T06:50:12.948Z,99127.53
2022-10-02T06:53:42.291Z,99129.48
2022-10-02T06:56:52.120Z,99127.41
2022-10-02T07:00:26.231Z,99140.20
2022-10-02T07:03:41.900Z,99144.33
2022-10-02T07:07:28.289Z,99131.55
2022-10-02T07:10:50.421Z,99128.72
2022-10-02T07:14:35.218Z,99129.61
2022-10-02T07:17:54.087Z,99122.69
2022-10-02T07:21:31.033Z,99131.87
2022-10-02T07:24:54.034Z,99124.14
2022-10-02T07:28:10.943Z,99123.64
2022-10-02T07:31:37.558Z,99116.94
2022-10-02T07:35:13.286Z,99110.84
2022-10-02T07:38:52.616Z,99108.34
2022-10-02T07:42:21.248Z,99098.94
2022-10-02T07:45:43.195Z,99096.78
2022-10-02T07:48:59.722Z,99083.03
2022-10-02T07:52:25.875Z,99063.91
2022-10-02T07:55:49.971Z,99046.98
2022-10-02T07:59:56.109Z,99038.92
2022-10-02T08:11:51.918Z,99031.73
2022-10-02T08:30:11.558Z,99006.67
2022-10-02T08:33:16.563Z,99011.88
2022-10-02T08:36:37.170Z,99008.89
2022-10-02T08:40:02.313Z,99013.96
2022-10-02T08:43:18.908Z,99018.94
2022-10-02T08:46:40.941Z,99016.61
2022-10-02T08:50:36.508Z,99025.12
2022-10-02T08:54:21.162Z,99026.68
2022-10-02T08:57:40.416Z,99023.08
2022-10-02T09:01:08.827Z,99014.78
2022-10-02T09:04:53.000Z,99009.05
2022-10-02T09:08:27.416Z,99008.98
2022-10-02T09:11:45.503Z,99005.28
2022-10-02T09:15:07.317Z,99004.48
2022-10-02T09:18:35.455Z,98989.62
2022-10-02T09:22:20.239Z,98979.78
2022-10-02T09:25:37.522Z,98980.96
2022-10-02T09:29:07.833Z,98970.09
2022-10-02T09:32:29.147Z,98963.42
2022-10-02T09:36:05.893Z,98956.22
2022-10-02T09:39:23.878Z,98946.21
2022-10-02T09:43:10.492Z,98926.56
2022-10-02T09:47:00.345Z,98912.36
2022-10-02T09:50:33.284Z,98890.94
2022-10-02T09:54:07.331Z,98879.36
2022-10-02T09:57:25.183Z,98879.08
2022-10-02T10:01:17.371Z,98875.34
2022-10-02T10:05:08.258Z,98858.80
2022-10-02T10:08:38.408Z,98846.54
2022-10-02T10:12:05.009Z,98835.27
2022-10-02T10:16:08.571Z,98831.79
2022-10-02T10:19:44.936Z,98827.77
2022-10-02T10:23:27.727Z,98817.56
2022-10-02T10:27:08.003Z,98806.12
2022-10-02T10:30:20.208Z,98790.18
2022-10-02T10:34:05.523Z,98770.00
2022-10-02T10:37:40.801Z,98753.37
2022-10-02T10:41:08.322Z,98748.78
2022-10-02T10:44:41.017Z,98742.65
2022-10-02T10:47:54.322Z,98732.14
2022-10-02T10:51:29.397Z,98725.91
2022-10-02T10:55:03.717Z,98733.42
2022-10-02T10:58:36.576Z,98718.22
2022-10-02T11:01:56.517Z,98712.30
2022-10-02T11:05:26.867Z,98709.09
2022-10-02T11:09:29.427Z,98704.39
2022-10-02T11:12:57.049Z,98701.11
2022-10-02T11:16:07.684Z,98698.39
2022-10-02T11:19:33.383Z,98692.17
2022-10-02T11:23:06.904Z,98683.88
2022-10-02T11:26:39.057Z,98686.42
2022-10-02T11:29:58.907Z,98672.33
2022-10-02T11:33:08.648Z,98664.86
2022-10-02T11:36:50.586Z,98660.39
2022-10-02T11:40:34.681Z,98658.73
2022-10-02T11:44:12.956Z,98659.83
2022-10-02T11:47:56.804Z,98656.79
2022-10-02T11:51:42.864Z,98657.30
2022-10-02T11:55:17.611Z,98642.28
2022-10-02T11:58:41.456Z,98641.64
2022-10-02T12:02:24.606Z,98630.30
2022-10-02T12:05:51.661Z,98627.48
2022-10-02T12:09:24.451Z,98626.57
2022-10-02T12:12:44.344Z,98628.27
2022-10-02T12:16:26.750Z,98629.83
2022-10-02T12:20:26.717Z,98623.70
2022-10-02T12:24:23.754Z,98596.35
2022-10-02T12:27:39.290Z,98591.00
2022-10-02T12:31:16.898Z,98595.10
2022-10-02T12:35:08.411Z,98600.34
2022-10-02T12:38:58.903Z,98602.48
2022-10-02T12:42:48.968Z,98592.17
2022-10-02T12:46:23.136Z,98584.22
2022-10-02T12:49:56.318Z,98579.80
2022-10-02T12:53:45.890Z,98570.64
2022-10-02T12:57:02.829Z,98567.97
2022-10-02T13:00:23.341Z,98566.78
2022-10-02T13:04:02.228Z,98567.83
2022-10-02T13:07:32.845Z,98567.47
2022-10-02T13:10:41.873Z,98557.84
2022-10-02T13:14:12.427Z,98548.50
2022-10-02T13:17:25.850Z,98537.45
2022-10-02T13:20:46.256Z,98539.86
2022-10-02T13:24:22.269Z,98535.48
2022-10-02T13:27:57.845Z,98528.27
2022-10-02T13:31:20.364Z,98528.03
2022-10-02T13:35:01.364Z,98531.84
2022-10-02T13:38:34.734Z,98526.33
2022-10-02T13:42:09.280Z,98527.42
2022-10-02T13:45:48.345Z,98520.14
2022-10-02T13:49:13.730Z,98528.42
2022-10-02T13:52:51.481Z,98538.65
2022-10-02T13:56:25.129Z,98537.77
2022-10-02T13:59:59.803Z,98544.05
2022-10-02T14:03:21.132Z,98538.52
2022-10-02T14:06:40.447Z,98536.03
2022-10-02T14:10:26.525Z,98532.61
2022-10-02T14:14:03.544Z,98526.22
2022-10-02T14:17:35.952Z,98524.44
2022-10-02T14:20:55.392Z,98536.45
2022-10-02T14:24:33.824Z,98539.98
2022-10-02T14:28:10.698Z,98530.81
2022-10-02T14:31:40.459Z,98538.77
2022-10-02T14:35:12.272Z,98536.75
2022-10-02T14:38:57.320Z,98549.66
2022-10-02T14:42:24.003Z,98547.16
2022-10-02T14:45:34.732Z,98547.09
2022-10-02T14:49:12.487Z,98554.20
2022-10-02T14:52:45.043Z,98558.55
2022-10-02T14:56:07.914Z,98555.90
2022-10-02T14:59:37.409Z,98558.05
2022-10-02T15:03:11.935Z,98569.80
2022-10-02T15:06:39.786Z,98558.95
2022-10-02T15:10:08.014Z,98559.11
2022-10-02T15:13:52.882Z,98551.91
2022-10-02T15:17:25.574Z,98551.84
2022-10-02T15:21:07.694Z,98559.55
2022-10-02T15:24:13.970Z,98561.13
2022-10-02T15:27:39.678Z,98561.13
2022-10-02T15:30:46.695Z,98551.20
2022-10-02T15:34:16.915Z,98559.69
2022-10-02T15:37:52.404Z,98563.25
2022-10-02T15:41:06.937Z,98568.22
2022-10-02T15:44:32.025Z,98568.67
2022-10-02T15:48:07.436Z,98575.56
2022-10-02T15:51:35.337Z,98579.14
2022-10-02T15:55:03.349Z,98589.27
2022-10-02T15:58:47.335Z,98593.46
2022-10-02T16:02:33.941Z,98592.63
2022-10-02T16:06:11.904Z,98590.64
2022-10-02T16:09:54.111Z,98582.09
2022-10-02T16:13:08.616Z,98585.39
2022-10-02T16:16:37.420Z,98598.63
2022-10-02T16:20:12.759Z,98594.43
2022-10-02T16:23:37.965Z,98606.08
2022-10-02T16:26:56.900Z,98604.13
2022-10-02T16:30:26.219Z,98600.26
2022-10-02T16:33:32.788Z,98595.78
2022-10-02T16:36:54.856Z,98594.05
2022-10-02T16:40:17.564Z,98593.97
2022-10-02T16:43:49.965Z,98593.88
2022-10-02T16:47:01.642Z,98595.70
2022-10-02T16:50:33.492Z,98590.48
2022-10-02T16:53:43.223Z,98593.14
2022-10-02T16:56:58.799Z,98592.78
2022-10-02T17:00:23.386Z,98596.27
2022-10-02T17:03:52.412Z,98601.18
2022-10-02T17:07:14.724Z,98606.97
2022-10-02T17:10:30.318Z,98608.79
2022-10-02T17:14:04.955Z,98610.79
2022-10-02T17:17:34.814Z,98620.38
2022-10-02T17:20:47.922Z,98631.06
2022-10-02T17:24:29.115Z,98639.70
2022-10-02T17:27:49.554Z,98643.57
2022-10-02T17:31:30.029Z,98633.08
2022-10-02T17:34:45.487Z,98642.64
2022-10-02T17:38:17.391Z,98643.11
2022-10-02T17:42:11.604Z,98639.95
2022-10-02T17:45:44.948Z,98646.11
2022-10-02T17:49:04.772Z,98657.03
2022-10-02T17:52:42.668Z,98658.23
2022-10-02T17:56:27.137Z,98641.30
2022-10-02T17:59:46.431Z,98634.39
2022-10-02T18:03:10.364Z,98639.52
2022-10-02T18:07:12.299Z,98644.10
2022-10-02T18:10:47.042Z,98633.31
2022-10-02T18:14:26.026Z,98629.91
2022-10-02T18:17:48.753Z,98625.95
2022-10-02T18:21:04.670Z,98636.48
2022-10-02T18:24:42.640Z,98638.36
2022-10-02T18:28:11.184Z,98654.84
2022-10-02T18:31:55.872Z,98649.88
2022-10-02T18:35:19.475Z,98660.91
2022-10-02T18:38:48.032Z,98665.61
2022-10-02T18:42:33.426Z,98664.19
2022-10-02T18:45:56.659Z,98661.61
2022-10-02T18:49:22.481Z,98658.08
2022-10-02T18:52:57.986Z,98662.69
2022-10-02T18:56:25.834Z,98668.17
2022-10-02T18:59:42.153Z,98664.81
2022-10-02T19:03:26.598Z,98661.48
2022-10-02T19:07:19.468Z,98660.27
2022-10-02T19:10:49.389Z,98658.52
2022-10-02T19:13:54.616Z,98669.08
2022-10-02T19:17:21.975Z,98693.95
2022-10-02T19:20:44.769Z,98689.53
2022-10-02T19:24:08.568Z,98676.45
2022-10-02T19:27:20.750Z,98675.97
2022-10-02T19:30:45.275Z,98673.77
2022-10-02T19:34:13.768Z,98673.47
2022-10-02T19:37:20.661Z,98652.05
2022-10-02T19:40:39.661Z,98668.67
2022-10-02T19:43:49.490Z,98678.20
2022-10-02T19:47:01.160Z,98670.15
2022-10-02T19:50:07.849Z,98683.11
2022-10-02T19:53:16.549Z,98674.13
2022-10-02T19:56:32.818Z,98676.50
2022-10-02T19:59:49.943Z,98682.59
2022-10-02T20:02:57.879Z,98681.70
2022-10-02T20:06:07.762Z,98685.42
2022-10-02T20:09:43.920Z,98688.45
2022-10-02T20:13:02.659Z,98697.30
2022-10-02T20:16:30.832Z,98697.44
2022-10-02T20:19:39.207Z,98705.73
2022-10-02T20:22:52.576Z,98702.47
2022-10-02T20:26:05.158Z,98706.78
2022-10-02T20:29:13.044Z,98716.47
2022-10-02T20:32:36.895Z,98714.87
2022-10-02T20:35:54.847Z,98722.00
2022-10-02T20:39:22.360Z,98723.74
2022-10-02T20:42:44.082Z,98717.87
2022-10-02T20:46:04.700Z,98720.01
2022-10-02T20:49:34.746Z,98727.16
2022-10-02T20:52:45.982Z,98726.25
2022-10-02T20:56:15.995Z,98716.05
2022-10-02T20:59:39.129Z,98716.85
2022-10-02T21:02:53.637Z,98723.38
2022-10-02T21:06:27.326Z,98730.22
2022-10-02T21:10:06.934Z,98728.71
2022-10-02T21:13:39.519Z,98732.76
2022-10-02T21:17:01.413Z,98728.81
2022-10-02T21:20:46.154Z,98739.84
2022-10-02T21:23:49.957Z,98746.09
2022-10-02T21:27:23.143Z,98741.14
2022-10-02T21:30:33.417Z,98740.91
2022-10-02T21:33:50.259Z,98742.03
2022-10-02T21:37:07.726Z,98746.27
2022-10-02T21:40:39.104Z,98747.71
2022-10-02T21:44:00.541Z,98755.56
2022-10-02T21:47:32.688Z,98755.77
2022-10-02T21:51:11.627Z,98758.34
2022-10-02T21:55:02.447Z,98760.98
2022-10-02T21:58:37.909Z,98760.38
2022-10-02T22:02:11.948Z,98760.67
2022-10-02T22:05:55.768Z,98772.95
2022-10-02T22:09:15.468Z,98774.75
2022-10-02T22:12:50.369Z,98773.14
2022-10-02T22:16:33.833Z,98781.13
2022-10-02T22:20:00.283Z,98787.49
2022-10-02T22:23:35.813Z,98788.49
2022-10-02T22:27:05.898Z,98792.00
2022-10-02T22:30:11.259Z,98793.17
2022-10-02T22:33:44.743Z,98801.09
2022-10-02T22:37:04.425Z,98802.15
2022-10-02T22:40:26.815Z,98811.95
2022-10-02T22:43:43.902Z,98820.41
2022-10-02T22:47:12.241Z,98822.83
2022-10-02T22:50:21.969Z,98826.82
2022-10-02T22:53:26.829Z,98835.13
2022-10-02T22:56:15.294Z,98831.89
2022-10-02T22:59:29.303Z,98842.52
2022-10-02T23:02:25.418Z,98838.09
2022-10-02T23:05:55.936Z,98858.52
2022-10-02T23:08:55.194Z,98862.81
2022-10-02T23:12:00.180Z,98868.59
2022-10-02T23:15:42.796Z,98868.49
2022-10-02T23:19:17.213Z,98864.36
2022-10-02T23:22:44.652Z,98871.73
2022-10-02T23:26:12.032Z,98868.67
2022-10-02T23:29:57.973Z,98865.37
2022-10-02T23:33:19.039Z,98866.83
2022-10-02T23:36:46.783Z,98869.88
2022-10-02T23:40:04.213Z,98872.08
2022-10-02T23:43:14.060Z,98873.45
2022-10-02T23:46:25.520Z,98873.56
2022-10-02T23:49:36.251Z,98872.80
2022-10-02T23:52:58.315Z,98879.00
2022-10-02T23:56:11.836Z,98874.17
2022-10-02T23:59:40.431Z,98884.81
